Time;durP1;ratioP1;P1;durP2;ratioP2;P2;SDS_P1;SDS_P2;PMS_P1;PMS_P2;Temp;Humidity;BMP_temperature;BMP_pressure;BME280_temperature;BME280_humidity;BME280_pressure;Samples;Min_cycle;Max_cycle;Signal;HPM_P1;HPM_P2
2023/06/09 00:00:33;;;;;;;7.93;6.80;;;;;;;17.08;88.61;97840.97;4187744;28;21258;-87
2023/06/09 00:02:38;;;;;;;8.63;6.97;;;;;;;17.09;88.21;97842.63;4184407;28;20736;-88
2023/06/09 00:04:44;;;;;;;7.80;6.50;;;;;;;17.04;88.48;97839.63;4198561;28;20618;-87
2023/06/09 00:06:47;;;;;;;8.87;6.43;;;;;;;17.02;88.84;97837.13;4198986;28;20640;-87
2023/06/09 00:08:51;;;;;;;7.67;6.17;;;;;;;17.02;87.16;97831.03;4203640;28;20644;-88
2023/06/09 00:10:54;;;;;;;7.87;6.57;;;;;;;17.00;88.96;97840.88;4198215;28;20983;-87
2023/06/09 00:12:58;;;;;;;8.07;6.70;;;;;;;16.98;88.95;97834.94;4184078;28;21040;-87
2023/06/09 00:15:01;;;;;;;7.00;5.90;;;;;;;16.99;87.23;97839.25;4182455;28;20652;-87
2023/06/09 00:17:08;;;;;;;7.47;6.20;;;;;;;16.96;88.50;97831.63;4187636;28;20631;-87
2023/06/09 00:19:13;;;;;;;8.67;6.60;;;;;;;16.93;89.13;97829.31;4201904;28;20631;-87
2023/06/09 00:21:18;;;;;;;8.73;6.13;;;;;;;16.93;89.22;97821.41;4201770;28;20640;-87
2023/06/09 00:23:21;;;;;;;8.10;6.33;;;;;;;16.87;88.75;97827.28;4198795;28;20621;-87
2023/06/09 00:25:24;;;;;;;6.87;5.80;;;;;;;16.85;89.27;97823.94;4199143;28;20656;-87
2023/06/09 00:27:29;;;;;;;9.30;7.33;;;;;;;16.84;89.50;97822.28;4187011;28;20632;-87
2023/06/09 00:29:32;;;;;;;8.03;6.80;;;;;;;16.84;88.65;97827.56;4197814;28;20736;-88
2023/06/09 00:31:35;;;;;;;8.57;6.67;;;;;;;16.83;88.83;97825.91;4184373;28;20643;-87
2023/06/09 00:33:39;;;;;;;11.67;7.13;;;;;;;16.82;88.37;97820.78;4215300;28;20644;-87
2023/06/09 00:35:44;;;;;;;7.50;6.67;;;;;;;16.80;89.17;97831.47;4190033;28;20673;-87
2023/06/09 00:37:48;;;;;;;7.47;6.33;;;;;;;16.78;89.52;97836.06;4209949;28;20626;-87
2023/06/09 00:39:51;;;;;;;8.93;6.30;;;;;;;16.77;88.37;97829.13;4202899;28;20670;-87
2023/06/09 00:41:54;;;;;;;7.70;6.73;;;;;;;16.73;88.51;97822.53;4188877;28;21185;-87
2023/06/09 00:43:58;;;;;;;8.97;6.83;;;;;;;16.73;89.88;97833.06;4190480;28;20635;-87
2023/06/09 00:46:05;;;;;;;7.60;6.33;;;;;;;16.70;89.33;97838.63;4191162;28;20618;-86
2023/06/09 00:48:09;;;;;;;7.43;6.50;;;;;;;16.67;89.29;97832.81;4189025;28;20627;-87
2023/06/09 00:50:13;;;;;;;9.33;6.47;;;;;;;16.67;89.83;97830.16;4192730;28;20623;-87
2023/06/09 00:52:18;;;;;;;10.63;7.77;;;;;;;16.66;89.71;97836.44;4199168;28;20661;-87
2023/06/09 00:54:21;;;;;;;7.53;6.07;;;;;;;16.62;88.44;97833.25;4191273;28;20664;-87
2023/06/09 00:56:25;;;;;;;8.17;6.67;;;;;;;16.60;89.57;97829.94;4191679;28;20657;-87
2023/06/09 00:58:28;;;;;;;7.37;6.00;;;;;;;16.57;88.69;97838.13;4202298;28;20625;-87
2023/06/09 01:00:32;;;;;;;8.67;6.83;;;;;;;16.53;88.65;97828.84;4187771;28;20629;-87
2023/06/09 01:02:38;;;;;;;8.40;7.20;;;;;;;16.52;89.78;97839.53;4188871;28;20621;-87
2023/06/09 01:04:49;;;;;;;7.23;6.07;;;;;;;16.48;89.57;97842.63;4202501;28;20623;-87
2023/06/09 01:07:00;;;;;;;7.80;6.70;;;;;;;16.46;89.24;97841.94;4190220;28;20713;-87
2023/06/09 01:09:14;;;;;;;8.57;6.77;;;;;;;16.40;90.05;97845.16;4188105;28;21080;-87
2023/06/09 01:11:22;;;;;;;8.30;6.80;;;;;;;16.39;90.01;97840.84;4208260;28;20655;-87
2023/06/09 01:13:29;;;;;;;9.10;7.63;;;;;;;16.38;90.37;97840.03;4186785;28;20627;-87
2023/06/09 01:15:36;;;;;;;7.20;6.00;;;;;;;16.40;89.35;97835.44;4198965;28;20624;-87
2023/06/09 01:17:42;;;;;;;10.60;6.40;;;;;;;16.36;88.75;97843.81;4186586;28;21204;-87
2023/06/09 01:19:47;;;;;;;7.83;6.37;;;;;;;16.35;89.72;97839.50;4201344;28;20634;-87
2023/06/09 01:21:53;;;;;;;9.40;6.60;;;;;;;16.32;90.82;97838.00;4201765;28;20638;-87
2023/06/09 01:24:09;;;;;;;7.93;6.47;;;;;;;16.31;90.19;97844.25;4202764;28;21300;-87
2023/06/09 01:26:15;;;;;;;8.13;6.77;;;;;;;16.31;89.04;97843.41;4216828;28;20609;-87
2023/06/09 01:28:21;;;;;;;10.10;7.40;;;;;;;16.30;89.64;97836.50;4200615;28;20637;-87
2023/06/09 01:30:29;;;;;;;8.87;6.87;;;;;;;16.26;90.41;97835.13;4187392;28;20644;-87
2023/06/09 01:32:34;;;;;;;10.33;6.40;;;;;;;16.18;89.79;97832.34;4201629;28;20636;-87
2023/06/09 01:34:38;;;;;;;7.50;6.40;;;;;;;16.11;89.32;97839.16;4189045;28;20618;-87
2023/06/09 01:36:43;;;;;;;7.57;6.37;;;;;;;16.09;89.81;97835.84;4184547;28;20637;-87
2023/06/09 01:38:47;;;;;;;8.67;7.13;;;;;;;16.07;90.06;97836.00;4201074;28;20633;-88
2023/06/09 01:40:50;;;;;;;7.93;6.50;;;;;;;16.07;90.45;97835.16;4189769;28;20667;-87
2023/06/09 01:42:59;;;;;;;8.57;7.00;;;;;;;16.06;90.46;97838.78;4192146;28;20627;-87
2023/06/09 01:45:02;;;;;;;11.23;7.23;;;;;;;16.01;90.39;97833.09;4189525;28;21201;-87
2023/06/09 01:47:06;;;;;;;8.00;7.00;;;;;;;16.01;90.95;97833.09;4180030;28;20618;-87
2023/06/09 01:49:15;;;;;;;8.50;6.90;;;;;;;15.96;91.22;97826.63;4199769;28;20632;-87
2023/06/09 01:51:23;;;;;;;9.10;7.27;;;;;;;15.94;89.33;97824.16;4200379;28;20677;-87
2023/06/09 01:53:29;;;;;;;8.13;6.80;;;;;;;15.92;91.04;97822.63;4188831;28;20627;-86
2023/06/09 01:55:37;;;;;;;7.43;6.53;;;;;;;15.90;89.80;97819.31;4199889;28;20629;-87
2023/06/09 01:57:43;;;;;;;9.13;7.10;;;;;;;15.86;90.83;97817.94;4199686;28;20646;-87
2023/06/09 01:59:53;;;;;;;9.67;7.60;;;;;;;15.84;91.98;97818.06;4199833;28;21029;-87
2023/06/09 02:01:58;;;;;;;9.27;7.57;;;;;;;15.83;90.72;97819.06;4186849;28;20616;-88
2023/06/09 02:04:01;;;;;;;9.83;7.57;;;;;;;15.83;91.69;97821.69;4203404;28;20678;-87
2023/06/09 02:06:06;;;;;;;10.50;8.10;;;;;;;15.84;90.02;97820.69;4198680;28;21651;-87
2023/06/09 02:08:10;;;;;;;10.20;7.30;;;;;;;15.84;91.74;97817.25;4184661;28;20638;-86
2023/06/09 02:10:14;;;;;;;9.00;7.17;;;;;;;15.84;92.29;97822.50;4199410;28;20629;-87
2023/06/09 02:12:17;;;;;;;11.20;7.80;;;;;;;15.85;90.61;97830.25;4182490;28;20649;-87
2023/06/09 02:14:21;;;;;;;9.37;7.80;;;;;;;15.83;91.84;97828.72;4181760;28;21255;-87
2023/06/09 02:16:26;;;;;;;8.37;7.20;;;;;;;15.77;92.60;97824.03;4189553;28;20743;-87
2023/06/09 02:18:32;;;;;;;8.70;7.60;;;;;;;15.76;93.46;97825.03;4206210;28;20623;-87
2023/06/09 02:20:35;;;;;;;9.40;7.63;;;;;;;15.76;92.81;97820.59;4188609;28;20631;-87
2023/06/09 02:22:38;;;;;;;9.27;7.50;;;;;;;15.76;93.34;97838.19;4199966;28;20624;-87
2023/06/09 02:24:41;;;;;;;7.93;7.13;;;;;;;15.76;91.37;97830.31;4195751;28;21016;-87
2023/06/09 02:26:45;;;;;;;9.30;7.50;;;;;;;15.73;91.35;97839.28;4198195;28;21300;-86
2023/06/09 02:28:48;;;;;;;10.30;7.73;;;;;;;15.72;92.23;97835.00;4185619;28;20666;-87
2023/06/09 02:30:51;;;;;;;9.10;8.10;;;;;;;15.75;92.34;97833.88;4205465;28;20643;-87
2023/06/09 02:32:58;;;;;;;11.50;8.20;;;;;;;15.78;92.02;97829.16;4205444;28;20615;-87
2023/06/09 02:35:01;;;;;;;9.00;7.50;;;;;;;15.77;91.40;97821.41;4206982;28;20631;-87
2023/06/09 02:37:07;;;;;;;9.97;7.90;;;;;;;15.73;91.92;97826.16;4202070;28;20693;-87
2023/06/09 02:39:10;;;;;;;9.43;7.70;;;;;;;15.67;92.84;97831.97;4190481;28;20736;-87
2023/06/09 02:41:14;;;;;;;9.90;8.20;;;;;;;15.60;90.84;97833.50;4190647;28;21116;-87
2023/06/09 02:43:17;;;;;;;8.57;7.53;;;;;;;15.59;91.69;97831.84;4188449;28;20664;-87
2023/06/09 02:45:20;;;;;;;9.63;8.10;;;;;;;15.54;92.33;97829.78;4184865;28;21156;-87
2023/06/09 02:47:24;;;;;;;9.20;7.60;;;;;;;15.54;93.34;97829.78;4184235;28;20719;-87
2023/06/09 02:49:29;;;;;;;11.20;7.60;;;;;;;15.51;92.48;97830.06;4187675;28;20678;-87
2023/06/09 02:51:32;;;;;;;9.20;8.10;;;;;;;15.52;92.94;97831.75;4196368;28;20710;-87
2023/06/09 02:53:36;;;;;;;9.10;7.37;;;;;;;15.50;93.61;97834.50;4201512;28;21328;-87
2023/06/09 02:55:44;;;;;;;8.70;7.20;;;;;;;15.50;92.34;97836.28;4196398;28;21221;-87
2023/06/09 02:57:51;;;;;;;10.07;7.80;;;;;;;15.46;92.00;97829.69;4207960;28;20654;-86
2023/06/09 02:59:58;;;;;;;10.30;8.77;;;;;;;15.42;93.11;97830.91;4185868;28;20703;-87
2023/06/09 03:02:01;;;;;;;9.03;7.40;;;;;;;15.41;92.15;97827.47;4196818;28;20632;-87
2023/06/09 03:04:05;;;;;;;10.80;8.40;;;;;;;15.39;92.85;97829.38;4190067;28;20716;-87
2023/06/09 03:06:14;;;;;;;10.23;7.53;;;;;;;15.37;93.09;97822.63;4189002;28;21244;-87
2023/06/09 03:08:17;;;;;;;9.47;8.07;;;;;;;15.36;92.10;97827.03;4201002;28;20718;-87
2023/06/09 03:10:21;;;;;;;8.47;7.00;;;;;;;15.33;92.36;97824.69;4181991;28;21200;-87
2023/06/09 03:12:25;;;;;;;9.10;7.60;;;;;;;15.31;93.00;97823.19;4188238;28;20675;-87
2023/06/09 03:14:29;;;;;;;11.90;7.97;;;;;;;15.31;91.19;97828.44;4190053;28;20617;-87
2023/06/09 03:16:32;;;;;;;10.20;8.20;;;;;;;15.31;92.12;97823.19;4190341;28;20631;-87
2023/06/09 03:18:36;;;;;;;10.57;8.13;;;;;;;15.32;91.82;97835.34;4184114;28;20725;-87
2023/06/09 03:20:39;;;;;;;10.50;8.60;;;;;;;15.32;92.48;97830.09;4201124;28;21008;-87
2023/06/09 03:22:47;;;;;;;9.40;7.70;;;;;;;15.29;91.50;97825.09;4206849;28;21231;-87
2023/06/09 03:24:51;;;;;;;9.70;7.23;;;;;;;15.27;92.64;97830.50;4190270;28;20726;-87
2023/06/09 03:26:54;;;;;;;8.40;7.40;;;;;;;15.28;93.01;97831.34;4183589;28;20685;-87
2023/06/09 03:28:59;;;;;;;9.43;8.10;;;;;;;15.23;91.38;97823.91;4190043;28;20644;-87
2023/06/09 03:31:03;;;;;;;11.07;7.87;;;;;;;15.26;91.57;97830.66;4203181;28;20651;-87
2023/06/09 03:33:06;;;;;;;11.43;9.13;;;;;;;15.27;92.25;97833.13;4187893;28;20731;-87
2023/06/09 03:35:10;;;;;;;10.33;8.07;;;;;;;15.29;93.41;97830.38;4198383;28;20643;-87
2023/06/09 03:37:14;;;;;;;9.70;8.03;;;;;;;15.27;93.32;97820.00;4189159;28;20655;-87
2023/06/09 03:39:19;;;;;;;9.73;7.77;;;;;;;15.27;93.14;97827.06;4186936;28;21251;-87
2023/06/09 03:41:24;;;;;;;11.57;8.60;;;;;;;15.28;93.09;97833.97;4213428;28;21238;-86
2023/06/09 03:43:29;;;;;;;10.73;7.90;;;;;;;15.28;93.24;97836.63;4187948;28;21049;-87
2023/06/09 03:45:34;;;;;;;10.27;8.23;;;;;;;15.27;92.18;97835.75;4198275;28;20609;-87
2023/06/09 03:47:37;;;;;;;11.10;8.60;;;;;;;15.31;93.65;97828.44;4186093;28;20640;-87
2023/06/09 03:49:40;;;;;;;11.43;9.00;;;;;;;15.32;92.02;97840.59;4191034;28;21058;-87
2023/06/09 03:51:44;;;;;;;9.43;8.13;;;;;;;15.33;92.10;97835.19;4189003;28;22427;-86
2023/06/09 03:53:47;;;;;;;10.47;8.67;;;;;;;15.34;92.71;97838.69;4200319;28;21241;-87
2023/06/09 03:55:52;;;;;;;12.00;8.50;;;;;;;15.38;91.95;97840.03;4182158;28;20715;-87
2023/06/09 03:57:55;;;;;;;11.10;8.90;;;;;;;15.39;92.69;97849.59;4214278;28;20653;-87
2023/06/09 03:59:59;;;;;;;12.60;8.80;;;;;;;15.38;93.41;97850.56;4186471;28;20640;-87
2023/06/09 04:02:04;;;;;;;10.00;8.50;;;;;;;15.38;93.43;97845.28;4191719;28;20971;-87
2023/06/09 04:04:07;;;;;;;11.53;8.23;;;;;;;15.40;93.42;97848.63;4199466;28;20630;-87
2023/06/09 04:06:10;;;;;;;10.30;9.00;;;;;;;15.44;92.68;97844.75;4187727;28;20651;-87
2023/06/09 04:08:14;;;;;;;12.67;9.87;;;;;;;15.47;92.48;97844.47;4186104;28;20608;-87
2023/06/09 04:10:17;;;;;;;10.70;9.27;;;;;;;15.49;92.30;97846.00;4197049;28;21227;-87
2023/06/09 04:12:22;;;;;;;10.87;9.13;;;;;;;15.54;93.26;97850.81;4201079;28;20623;-87
2023/06/09 04:14:25;;;;;;;11.03;9.17;;;;;;;15.57;93.58;97854.84;4188272;28;20622;-87
2023/06/09 04:16:29;;;;;;;11.30;9.30;;;;;;;15.60;92.36;97851.91;4193728;28;21749;-87
2023/06/09 04:18:33;;;;;;;11.77;8.77;;;;;;;15.65;91.90;97856.72;4187007;28;20648;-87
2023/06/09 04:20:36;;;;;;;11.00;9.20;;;;;;;15.66;93.80;97848.72;4186358;28;21025;-87
2023/06/09 04:22:47;;;;;;;10.73;8.87;;;;;;;15.70;92.77;97851.91;4189671;28;20686;-87
2023/06/09 04:24:51;;;;;;;12.13;8.70;;;;;;;15.73;93.22;97855.06;4193706;28;20688;-87
2023/06/09 04:26:55;;;;;;;9.80;8.63;;;;;;;15.77;91.88;97856.47;4207425;28;20731;-87
2023/06/09 04:28:59;;;;;;;11.10;8.33;;;;;;;15.80;92.24;97856.19;4192780;28;20621;-87
2023/06/09 04:31:03;;;;;;;10.60;8.50;;;;;;;15.86;92.59;97852.13;4190729;28;20632;-87
2023/06/09 04:33:07;;;;;;;10.47;8.70;;;;;;;15.92;93.46;97855.03;4185296;28;20670;-86
2023/06/09 04:35:11;;;;;;;10.80;8.53;;;;;;;15.94;90.56;97854.91;4190588;28;20671;-87
2023/06/09 04:37:15;;;;;;;10.60;8.83;;;;;;;15.97;92.51;97859.88;4192956;28;20642;-87
2023/06/09 04:39:20;;;;;;;9.90;8.90;;;;;;;16.01;92.78;97845.44;4188843;28;20775;-87
2023/06/09 04:41:25;;;;;;;10.07;8.17;;;;;;;16.06;91.10;97851.94;4194787;28;20619;-87
2023/06/09 04:43:29;;;;;;;11.23;8.80;;;;;;;16.11;90.80;97852.31;4189976;28;21076;-87
2023/06/09 04:45:35;;;;;;;11.73;10.50;;;;;;;16.15;91.74;97851.06;4192812;28;21287;-87
2023/06/09 04:47:44;;;;;;;11.60;9.43;;;;;;;16.19;91.64;97849.78;4185384;28;20672;-87
2023/06/09 04:49:49;;;;;;;9.53;8.53;;;;;;;16.25;90.93;97854.50;4194760;28;20640;-87
2023/06/09 04:51:55;;;;;;;9.60;8.13;;;;;;;16.30;91.05;97860.19;4189701;28;21245;-87
2023/06/09 04:54:04;;;;;;;11.37;9.33;;;;;;;16.32;91.44;97856.41;4205742;28;20635;-87
2023/06/09 04:56:08;;;;;;;10.83;8.53;;;;;;;16.37;92.25;97853.34;4200627;28;20631;-87
2023/06/09 04:58:15;;;;;;;9.60;8.50;;;;;;;16.40;91.61;97859.13;4194813;28;20678;-87
2023/06/09 05:00:20;;;;;;;10.10;8.63;;;;;;;16.43;90.21;97858.03;4205365;28;21231;-87
2023/06/09 05:02:24;;;;;;;10.07;9.07;;;;;;;16.48;92.41;97867.16;4192724;28;21258;-87
2023/06/09 05:04:28;;;;;;;9.87;8.53;;;;;;;16.55;91.13;97868.22;4189635;28;20699;-87
2023/06/09 05:06:31;;;;;;;9.60;8.50;;;;;;;16.62;92.08;97870.13;4207728;28;20655;-87
2023/06/09 05:08:35;;;;;;;12.47;9.70;;;;;;;16.69;92.08;97873.00;4186600;28;20667;-87
2023/06/09 05:10:40;;;;;;;10.90;8.50;;;;;;;16.77;90.87;97871.28;4202984;28;20629;-87
2023/06/09 05:12:43;;;;;;;11.87;10.00;;;;;;;16.86;90.26;97869.56;4202064;28;20740;-87
2023/06/09 05:14:47;;;;;;;12.20;9.40;;;;;;;16.95;90.87;97869.50;4186045;28;20637;-87
2023/06/09 05:16:53;;;;;;;10.67;9.00;;;;;;;17.02;89.94;97871.38;4200465;28;20639;-87
2023/06/09 05:18:59;;;;;;;10.30;9.10;;;;;;;17.12;90.77;97868.69;4202861;28;21121;-87
2023/06/09 05:21:03;;;;;;;10.23;8.13;;;;;;;17.22;90.84;97875.56;4185280;28;20694;-87
2023/06/09 05:23:07;;;;;;;10.80;9.03;;;;;;;17.31;89.72;97884.38;4188725;28;20629;-88
2023/06/09 05:25:13;;;;;;;13.33;9.23;;;;;;;17.41;90.63;97877.22;4188087;28;20642;-90
2023/06/09 05:27:19;;;;;;;9.87;8.37;;;;;;;17.55;89.94;97893.34;4201100;28;20626;-91
2023/06/09 05:29:23;;;;;;;9.17;8.20;;;;;;;17.69;89.20;97884.88;4201763;28;20628;-92
2023/06/09 05:31:27;;;;;;;10.97;9.20;;;;;;;17.83;89.32;97887.81;4199089;28;20649;-94
2023/06/09 05:33:30;;;;;;;9.70;8.50;;;;;;;17.98;88.61;97892.34;4202903;28;20623;-95
2023/06/09 05:35:35;;;;;;;10.80;9.00;;;;;;;18.11;88.33;97884.00;4190713;28;20681;-89
2023/06/09 05:37:48;;;;;;;10.50;9.40;;;;;;;18.34;87.77;97891.25;4196306;28;21236;-89
2023/06/09 05:39:57;;;;;;;9.93;8.77;;;;;;;18.66;87.83;97902.81;4187528;28;20653;-89
2023/06/09 05:42:02;;;;;;;10.00;8.73;;;;;;;18.99;87.00;97909.91;4192630;28;20625;-89
2023/06/09 05:44:05;;;;;;;10.50;8.57;;;;;;;19.28;86.03;97907.69;4206334;28;21224;-89
2023/06/09 05:46:09;;;;;;;9.53;8.53;;;;;;;19.61;84.83;97915.50;4184878;28;20751;-89
2023/06/09 05:48:13;;;;;;;9.23;8.23;;;;;;;19.93;83.06;97911.03;4184762;28;21073;-89
2023/06/09 05:50:17;;;;;;;9.37;8.40;;;;;;;20.25;83.30;97921.59;4182745;28;20669;-89
2023/06/09 05:52:22;;;;;;;11.43;8.80;;;;;;;20.54;80.75;97920.06;4181309;28;20620;-89
2023/06/09 05:54:25;;;;;;;9.47;8.33;;;;;;;20.82;81.15;97916.81;4202759;28;20635;-89
2023/06/09 05:56:29;;;;;;;9.33;8.37;;;;;;;21.09;80.19;97916.38;4197714;28;22000;-89
2023/06/09 05:58:33;;;;;;;8.97;8.07;;;;;;;21.32;80.53;97916.22;4181020;28;20640;-89
2023/06/09 06:00:36;;;;;;;9.13;8.20;;;;;;;21.56;78.90;97918.78;4198713;28;20644;-89
2023/06/09 06:02:40;;;;;;;10.00;8.17;;;;;;;21.79;78.00;97920.41;4195652;28;21172;-89
2023/06/09 06:04:43;;;;;;;8.30;7.47;;;;;;;22.03;77.61;97916.72;4199240;28;20653;-89
2023/06/09 06:06:47;;;;;;;9.90;8.03;;;;;;;22.25;77.69;97924.66;4197544;28;20742;-89
2023/06/09 06:08:51;;;;;;;9.80;8.47;;;;;;;22.48;76.64;97923.63;4188095;28;20668;-89
2023/06/09 06:10:54;;;;;;;8.97;8.10;;;;;;;22.67;75.44;97923.06;4216140;28;20639;-89
2023/06/09 06:13:02;;;;;;;9.70;8.27;;;;;;;22.87;75.32;97930.31;4197063;28;20629;-89
2023/06/09 06:15:06;;;;;;;8.40;7.43;;;;;;;23.05;74.84;97928.13;4193320;28;20686;-89
2023/06/09 06:17:09;;;;;;;10.63;9.10;;;;;;;23.13;74.22;97933.34;4207395;28;20654;-89
2023/06/09 06:19:13;;;;;;;9.80;8.70;;;;;;;23.16;73.37;97930.31;4184712;28;21085;-88
2023/06/09 06:21:20;;;;;;;9.03;8.13;;;;;;;23.26;74.39;97937.00;4207763;28;20720;-88
2023/06/09 06:23:23;;;;;;;9.03;7.67;;;;;;;23.54;74.62;97939.75;4186024;28;20636;-89
2023/06/09 06:25:28;;;;;;;8.57;7.57;;;;;;;23.81;72.78;97945.19;4191368;28;20845;-88
2023/06/09 06:27:32;;;;;;;8.20;7.40;;;;;;;24.09;75.06;97930.09;4192932;28;20648;-89
2023/06/09 06:29:38;;;;;;;7.77;6.10;;;;;;;24.43;70.26;97939.00;4185700;28;21058;-89
2023/06/09 06:31:42;;;;;;;7.43;5.67;;;;;;;24.65;67.13;97926.22;4190919;28;20630;-89
2023/06/09 06:33:45;;;;;;;6.60;5.30;;;;;;;24.95;65.96;97924.97;4193310;28;21250;-89
2023/06/09 06:35:49;;;;;;;6.20;5.60;;;;;;;25.21;67.38;97927.78;4202488;28;20624;-89
2023/06/09 06:37:52;;;;;;;6.97;6.27;;;;;;;25.39;64.14;97920.88;4200630;28;22206;-89
2023/06/09 06:39:55;;;;;;;5.97;5.37;;;;;;;25.56;64.89;97929.34;4192795;28;20675;-89
2023/06/09 06:42:00;;;;;;;7.37;5.70;;;;;;;25.62;63.89;97926.72;4202221;28;20677;-88
2023/06/09 06:44:10;;;;;;;6.40;5.60;;;;;;;25.63;63.68;97920.31;4208485;28;20625;-89
2023/06/09 06:46:15;;;;;;;6.60;5.50;;;;;;;25.73;62.63;97924.28;4205218;28;20635;-89
2023/06/09 06:48:18;;;;;;;5.70;5.10;;;;;;;25.87;63.81;97941.19;4188514;28;20606;-89
2023/06/09 06:50:22;;;;;;;6.03;5.43;;;;;;;25.96;63.16;97937.28;4200660;28;20630;-89
2023/06/09 06:52:28;;;;;;;6.13;5.10;;;;;;;26.24;62.93;97939.56;4185737;28;20622;-89
2023/06/09 06:54:31;;;;;;;6.43;5.23;;;;;;;26.40;61.28;97935.69;4203026;28;20634;-89
2023/06/09 06:56:35;;;;;;;5.47;4.87;;;;;;;26.62;60.47;97935.25;4200029;28;20668;-91
2023/06/09 06:58:40;;;;;;;6.00;5.30;;;;;;;26.80;61.97;97944.28;4202287;28;21198;-90
2023/06/09 07:00:43;;;;;;;6.80;5.50;;;;;;;26.79;60.31;97936.44;4192060;28;20746;-89
2023/06/09 07:02:47;;;;;;;5.60;5.00;;;;;;;26.76;61.22;97934.19;4204944;28;20631;-88
2023/06/09 07:04:51;;;;;;;6.17;5.57;;;;;;;26.83;61.29;97938.50;4202337;28;20635;-88
2023/06/09 07:06:54;;;;;;;6.43;5.73;;;;;;;26.84;59.93;97937.47;4192208;28;21249;-92
2023/06/09 07:08:57;;;;;;;7.03;5.40;;;;;;;26.81;60.98;97934.41;4198851;28;20637;-93
2023/06/09 07:11:01;;;;;;;6.73;5.93;;;;;;;26.86;60.72;97934.59;4204374;28;20628;-92
2023/06/09 07:13:05;;;;;;;6.27;5.67;;;;;;;27.11;62.03;97939.09;4181690;28;20631;-92
2023/06/09 07:15:10;;;;;;;6.00;5.40;;;;;;;27.20;60.25;97941.31;4182103;28;21236;-90
2023/06/09 07:17:13;;;;;;;6.30;5.70;;;;;;;27.36;62.05;97940.81;4190598;28;20639;-91
2023/06/09 07:19:17;;;;;;;7.10;5.80;;;;;;;27.34;60.14;97932.19;4178331;28;20638;-91
2023/06/09 07:21:20;;;;;;;6.30;5.70;;;;;;;27.47;61.63;97933.97;4180974;28;20631;-93
2023/06/09 07:23:23;;;;;;;5.70;5.17;;;;;;;27.57;60.19;97937.88;4171201;28;20638;-92
2023/06/09 07:25:27;;;;;;;5.80;5.30;;;;;;;27.53;60.05;97937.50;4182563;28;20663;-92
2023/06/09 07:27:36;;;;;;;5.97;5.43;;;;;;;27.37;60.22;97931.75;4190162;28;20651;-91
2023/06/09 07:29:41;;;;;;;5.93;5.33;;;;;;;27.52;62.14;97936.88;4195120;28;20666;-91
2023/06/09 07:31:46;;;;;;;5.40;4.90;;;;;;;27.68;62.80;97923.78;4196331;28;20852;-91
2023/06/09 07:33:52;;;;;;;8.90;5.50;;;;;;;27.90;61.44;97933.16;4202573;28;20641;-91
2023/06/09 07:35:56;;;;;;;6.23;5.53;;;;;;;27.93;59.89;97940.75;4183027;28;20635;-91
2023/06/09 07:38:00;;;;;;;5.43;4.93;;;;;;;28.11;60.31;97941.69;4200307;28;21011;-88
2023/06/09 07:40:05;;;;;;;5.10;4.60;;;;;;;28.13;60.71;97934.22;4196841;28;21067;-88
2023/06/09 07:42:21;;;;;;;5.80;5.30;;;;;;;28.21;60.54;97937.50;4191298;28;20618;-88
2023/06/09 07:44:25;;;;;;;5.57;5.03;;;;;;;28.45;60.96;97935.88;4197799;28;20677;-88
2023/06/09 07:46:30;;;;;;;5.50;5.00;;;;;;;28.50;59.82;97934.13;4199708;28;21016;-87
2023/06/09 07:48:37;;;;;;;6.03;5.43;;;;;;;28.50;58.99;97932.25;4196973;28;20635;-88
2023/06/09 07:50:40;;;;;;;5.77;5.27;;;;;;;28.38;58.76;97930.53;4196401;28;20630;-88
2023/06/09 07:53:03;;;;;;;5.43;4.90;;;;;;;28.29;59.96;97923.78;4197397;28;21045;-88
2023/06/09 07:55:10;;;;;;;5.87;5.03;;;;;;;28.31;59.44;97932.47;4201134;28;20646;-87
2023/06/09 07:57:18;;;;;;;5.83;5.30;;;;;;;28.31;59.31;97929.78;4195589;28;21002;-87
2023/06/09 07:59:23;;;;;;;5.80;5.20;;;;;;;28.21;59.60;97924.06;4186808;28;20667;-88
2023/06/09 08:01:30;;;;;;;6.07;5.30;;;;;;;28.33;60.43;97922.31;4184711;28;20679;-88
2023/06/09 08:03:38;;;;;;;5.60;5.10;;;;;;;28.43;60.72;97922.66;4184826;28;20661;-88
2023/06/09 08:05:43;;;;;;;5.70;5.20;;;;;;;28.56;60.15;97920.66;4185661;28;21116;-89
2023/06/09 08:07:46;;;;;;;6.03;5.43;;;;;;;28.57;58.96;97918.81;4194469;28;20633;-88
2023/06/09 08:09:50;;;;;;;5.93;5.33;;;;;;;28.57;58.97;97914.25;4186893;28;20643;-88
2023/06/09 08:11:53;;;;;;;5.70;4.90;;;;;;;28.55;60.21;97919.03;4197228;28;20619;-88
2023/06/09 08:13:56;;;;;;;6.17;5.13;;;;;;;28.55;58.69;97918.19;4196479;28;21068;-87
2023/06/09 08:16:00;;;;;;;6.00;5.20;;;;;;;28.55;59.56;97915.50;4196035;28;21257;-88
2023/06/09 08:18:07;;;;;;;7.27;6.57;;;;;;;28.58;60.11;97918.59;4198667;28;20667;-88
2023/06/09 08:20:13;;;;;;;5.17;4.70;;;;;;;28.48;59.81;97912.06;4189165;28;20636;-88
2023/06/09 08:22:16;;;;;;;7.23;5.50;;;;;;;28.70;61.12;97916.00;4184188;28;20645;-88
2023/06/09 08:24:19;;;;;;;5.60;5.10;;;;;;;28.86;58.52;97918.94;4205240;28;20662;-88
2023/06/09 08:26:22;;;;;;;5.33;4.83;;;;;;;28.70;58.56;97913.31;4195306;28;20679;-88
2023/06/09 08:28:25;;;;;;;4.97;4.57;;;;;;;28.68;59.23;97907.34;4198634;28;21021;-88
2023/06/09 08:30:29;;;;;;;6.00;5.40;;;;;;;28.76;58.57;97907.06;4180893;28;20643;-88
2023/06/09 08:32:32;;;;;;;6.43;5.30;;;;;;;28.79;60.11;97903.94;4200898;28;20626;-88
2023/06/09 08:34:36;;;;;;;6.03;5.43;;;;;;;28.92;59.76;97901.94;4202866;28;20729;-88
2023/06/09 08:36:42;;;;;;;5.03;4.53;;;;;;;29.08;58.05;97912.09;4200918;28;20690;-88
2023/06/09 08:38:50;;;;;;;5.50;5.00;;;;;;;29.18;58.46;97907.84;4204343;28;20643;-89
2023/06/09 08:41:05;;;;;;;5.00;4.50;;;;;;;29.09;57.22;97901.13;4199618;28;20651;-88
2023/06/09 08:43:08;;;;;;;4.53;4.13;;;;;;;29.06;58.49;97896.19;4192552;28;20635;-89
2023/06/09 08:45:12;;;;;;;4.93;4.53;;;;;;;29.20;57.50;97896.84;4197959;28;21307;-88
2023/06/09 08:47:18;;;;;;;4.60;4.20;;;;;;;29.26;56.15;97891.41;4199029;28;20654;-89
2023/06/09 08:49:22;;;;;;;4.67;4.17;;;;;;;29.28;55.89;97891.19;4188434;28;20678;-89
2023/06/09 08:51:26;;;;;;;4.37;3.97;;;;;;;29.08;55.49;97888.72;4205426;28;20925;-88
2023/06/09 08:53:31;;;;;;;4.73;4.13;;;;;;;28.99;56.36;97883.88;4199863;28;20634;-84
2023/06/09 08:55:34;;;;;;;4.10;3.67;;;;;;;28.81;55.74;97878.50;4199167;28;20741;-84
2023/06/09 08:57:38;;;;;;;4.50;4.10;;;;;;;28.72;56.36;97874.47;4196138;28;20665;-84
2023/06/09 08:59:45;;;;;;;5.50;3.70;;;;;;;28.82;56.65;97879.31;4194471;28;20736;-84
2023/06/09 09:01:50;;;;;;;4.17;3.77;;;;;;;28.94;55.96;97875.63;4197049;28;21081;-85
2023/06/09 09:03:53;;;;;;;4.20;3.80;;;;;;;28.98;57.05;97876.84;4188409;28;20635;-84
2023/06/09 09:05:56;;;;;;;4.33;3.93;;;;;;;28.90;55.68;97876.31;4182218;28;21049;-85
2023/06/09 09:08:00;;;;;;;3.80;3.27;;;;;;;28.63;53.86;97872.25;4203436;28;20634;-85
2023/06/09 09:10:05;;;;;;;4.13;3.73;;;;;;;28.57;55.71;97867.78;4198627;28;20683;-85
2023/06/09 09:12:12;;;;;;;4.10;3.70;;;;;;;28.68;55.41;97873.25;4179148;28;21230;-85
2023/06/09 09:14:15;;;;;;;3.70;3.30;;;;;;;28.54;55.72;97870.91;4200570;28;20611;-85
2023/06/09 09:16:19;;;;;;;4.90;4.00;;;;;;;28.40;55.78;97858.66;4200988;28;21249;-88
2023/06/09 09:18:22;;;;;;;3.90;3.50;;;;;;;28.33;55.88;97860.56;4201625;28;20634;-86
2023/06/09 09:20:32;;;;;;;4.00;3.60;;;;;;;28.39;56.34;97859.69;4213762;28;20674;-86
2023/06/09 09:22:44;;;;;;;4.33;3.80;;;;;;;28.50;56.60;97872.38;4197199;28;22200;-86
2023/06/09 09:24:49;;;;;;;3.70;3.40;;;;;;;28.49;56.03;97866.19;4198733;28;20631;-86
2023/06/09 09:26:56;;;;;;;4.30;3.90;;;;;;;28.41;57.20;97859.47;4202469;28;21039;-86
2023/06/09 09:29:01;;;;;;;3.90;3.33;;;;;;;28.41;55.85;97862.97;4203585;28;20614;-86
2023/06/09 09:31:08;;;;;;;4.03;3.67;;;;;;;28.44;56.39;97867.91;4202760;28;20658;-87
2023/06/09 09:33:12;;;;;;;4.07;3.70;;;;;;;28.49;54.60;97862.69;4200870;28;20618;-86
2023/06/09 09:35:15;;;;;;;4.43;4.03;;;;;;;28.59;56.07;97860.31;4190121;28;20731;-86
2023/06/09 09:37:19;;;;;;;4.90;4.00;;;;;;;28.48;55.27;97857.53;4196361;28;20692;-86
2023/06/09 09:39:23;;;;;;;4.70;4.20;;;;;;;28.44;55.94;97862.53;4175048;28;20622;-86
2023/06/09 09:41:26;;;;;;;4.30;3.90;;;;;;;28.43;55.97;97866.28;4186494;28;20657;-86
2023/06/09 09:43:31;;;;;;;5.00;4.20;;;;;;;28.45;54.62;97860.69;4174420;28;20631;-85
2023/06/09 09:45:37;;;;;;;4.10;3.63;;;;;;;28.39;54.54;97853.53;4173726;28;24751;-85